createdAt,value
2019-05-05T00:00:21.994Z,0.00
2019-05-05T00:01:22.004Z,0.00
2019-05-05T00:02:21.966Z,0.00
2019-05-05T00:03:21.955Z,0.00
2019-05-05T00:04:24.180Z,0.00
2019-05-05T00:05:21.936Z,0.00
2019-05-05T00:06:21.939Z,0.00
2019-05-05T00:07:21.916Z,0.00
2019-05-05T00:08:21.903Z,0.00
2019-05-05T00:09:21.942Z,0.00
2019-05-05T00:10:21.886Z,0.00
2019-05-05T00:11:21.874Z,0.00
2019-05-05T00:12:21.861Z,0.00
2019-05-05T00:13:21.850Z,0.00
2019-05-05T00:14:21.848Z,0.00
2019-05-05T00:15:21.851Z,0.00
2019-05-05T00:16:21.817Z,0.00
2019-05-05T00:17:21.805Z,0.00
2019-05-05T00:18:21.802Z,0.00
2019-05-05T00:19:30.646Z,0.00
2019-05-05T00:20:24.969Z,0.00
2019-05-05T00:21:21.780Z,0.00
2019-05-05T00:22:21.754Z,0.00
2019-05-05T00:23:21.746Z,0.00
2019-05-05T00:24:21.741Z,0.00
2019-05-05T00:25:21.721Z,0.00
2019-05-05T00:26:21.712Z,0.00
2019-05-05T00:27:21.720Z,0.00
2019-05-05T00:28:21.694Z,0.00
2019-05-05T00:29:21.689Z,0.00
2019-05-05T00:30:21.670Z,0.00
2019-05-05T00:31:21.659Z,0.00
2019-05-05T00:32:21.653Z,0.00
2019-05-05T00:33:21.657Z,0.00
2019-05-05T00:34:21.668Z,0.00
2019-05-05T00:35:21.622Z,0.00
2019-05-05T00:36:21.607Z,0.00
2019-05-05T00:37:21.595Z,0.00
2019-05-05T00:38:21.588Z,0.00
2019-05-05T00:39:21.601Z,0.00
2019-05-05T00:40:21.563Z,0.00
2019-05-05T00:41:21.563Z,0.00
2019-05-05T00:42:21.542Z,0.00
2019-05-05T00:43:21.530Z,0.00
2019-05-05T00:44:21.530Z,0.00
2019-05-05T00:45:21.546Z,0.00
2019-05-05T00:46:21.513Z,0.00
2019-05-05T00:47:21.523Z,0.00
2019-05-05T00:48:21.486Z,0.00
2019-05-05T00:49:21.475Z,0.00
2019-05-05T00:50:21.456Z,0.00
2019-05-05T00:51:21.446Z,0.00
2019-05-05T00:52:21.470Z,0.00
2019-05-05T00:53:21.422Z,0.00
2019-05-05T00:54:21.585Z,0.00
2019-05-05T00:55:21.399Z,0.00
2019-05-05T00:56:21.391Z,0.00
2019-05-05T00:57:21.385Z,0.00
2019-05-05T00:58:21.386Z,0.00
2019-05-05T00:59:21.361Z,0.00
2019-05-05T01:00:21.361Z,0.00
2019-05-05T01:01:21.335Z,0.00
2019-05-05T01:02:21.326Z,0.00
2019-05-05T01:03:21.311Z,0.00
2019-05-05T01:04:21.331Z,0.00
2019-05-05T01:05:21.302Z,0.00
2019-05-05T01:06:21.280Z,0.00
2019-05-05T01:07:21.271Z,0.00
2019-05-05T01:08:21.258Z,0.00
2019-05-05T01:09:21.250Z,0.00
2019-05-05T01:10:21.264Z,0.00
2019-05-05T01:11:21.225Z,0.00
2019-05-05T01:12:21.216Z,0.00
2019-05-05T01:13:21.205Z,0.00
2019-05-05T01:14:21.192Z,0.00
2019-05-05T01:15:21.193Z,0.00
2019-05-05T01:16:21.172Z,0.00
2019-05-05T01:17:21.180Z,0.00
2019-05-05T01:18:21.150Z,0.00
2019-05-05T01:19:21.138Z,0.00
2019-05-05T01:20:21.143Z,0.00
2019-05-05T01:21:21.122Z,0.00
2019-05-05T01:22:21.107Z,0.00
2019-05-05T01:23:21.127Z,0.00
2019-05-05T01:24:21.090Z,0.00
2019-05-05T01:25:21.084Z,0.00
2019-05-05T01:26:21.063Z,0.00
2019-05-05T01:27:21.052Z,0.00
2019-05-05T01:28:21.080Z,0.00
2019-05-05T01:29:21.058Z,0.00
2019-05-05T01:30:21.031Z,0.00
2019-05-05T01:31:21.011Z,0.00
2019-05-05T01:32:21.024Z,0.00
2019-05-05T01:33:20.989Z,0.00
2019-05-05T01:34:20.977Z,0.00
2019-05-05T01:35:21.007Z,0.00
2019-05-05T01:36:20.959Z,0.00
2019-05-05T01:37:20.944Z,0.00
2019-05-05T01:38:20.934Z,0.00
2019-05-05T01:39:20.922Z,0.00
2019-05-05T01:40:20.944Z,0.00
2019-05-05T01:41:20.909Z,0.00
2019-05-05T01:42:20.890Z,0.00
2019-05-05T01:43:20.879Z,0.00
2019-05-05T01:44:20.868Z,0.00
2019-05-05T01:45:20.877Z,0.00
2019-05-05T01:46:20.867Z,0.00
2019-05-05T01:47:20.839Z,0.00
2019-05-05T01:48:20.824Z,0.00
2019-05-05T01:49:20.815Z,0.00
2019-05-05T01:50:21.297Z,0.00
2019-05-05T01:51:20.806Z,0.00
2019-05-05T01:52:20.814Z,0.00
2019-05-05T01:53:20.772Z,0.00
2019-05-05T01:54:20.767Z,0.00
2019-05-05T01:55:20.770Z,0.00
2019-05-05T01:56:20.771Z,0.00
2019-05-05T01:57:20.729Z,0.00
2019-05-05T01:58:20.753Z,0.00
2019-05-05T01:59:20.741Z,0.00
2019-05-05T02:00:20.706Z,0.00
2019-05-05T02:01:20.690Z,0.00
2019-05-05T02:02:20.694Z,0.00
2019-05-05T02:03:20.664Z,0.00
2019-05-05T02:04:20.675Z,0.00
2019-05-05T02:05:20.658Z,0.00
2019-05-05T02:06:20.632Z,0.00
2019-05-05T02:07:20.621Z,0.00
2019-05-05T02:08:20.610Z,0.00
2019-05-05T02:09:20.608Z,0.00
2019-05-05T02:10:20.611Z,0.00
2019-05-05T02:11:20.592Z,0.00
2019-05-05T02:12:20.566Z,0.00
2019-05-05T02:13:20.557Z,0.00
2019-05-05T02:14:20.548Z,0.00
2019-05-05T02:15:20.567Z,0.00
2019-05-05T02:16:20.589Z,0.00
2019-05-05T02:17:20.583Z,0.00
2019-05-05T02:18:20.506Z,0.00
2019-05-05T02:19:20.507Z,0.00
2019-05-05T02:20:28.901Z,0.00
2019-05-05T02:21:21.480Z,0.00
2019-05-05T02:22:20.463Z,0.00
2019-05-05T02:23:20.469Z,0.00
2019-05-05T02:24:20.449Z,0.00
2019-05-05T02:25:20.427Z,0.00
2019-05-05T02:26:20.438Z,0.00
2019-05-05T02:27:20.407Z,0.00
2019-05-05T02:28:20.398Z,0.00
2019-05-05T02:29:20.413Z,0.00
2019-05-05T02:30:20.375Z,0.00
2019-05-05T02:31:20.379Z,0.00
2019-05-05T02:32:20.366Z,0.00
2019-05-05T02:33:20.343Z,0.00
2019-05-05T02:34:20.331Z,0.00
2019-05-05T02:35:20.389Z,0.00
2019-05-05T02:36:20.321Z,0.00
2019-05-05T02:37:20.307Z,0.00
2019-05-05T02:38:20.287Z,0.00
2019-05-05T02:39:20.283Z,0.00
2019-05-05T02:40:20.274Z,0.00
2019-05-05T02:41:20.310Z,0.00
2019-05-05T02:42:20.250Z,0.00
2019-05-05T02:43:20.237Z,0.00
2019-05-05T02:44:20.231Z,0.00
2019-05-05T02:45:20.213Z,0.00
2019-05-05T02:46:20.214Z,0.00
2019-05-05T02:47:20.222Z,0.00
2019-05-05T02:48:20.181Z,0.00
2019-05-05T02:49:20.167Z,0.00
2019-05-05T02:50:20.159Z,0.00
2019-05-05T02:51:20.159Z,0.00
2019-05-05T02:52:20.136Z,0.00
2019-05-05T02:53:20.154Z,0.00
2019-05-05T02:54:20.116Z,0.00
2019-05-05T02:55:20.109Z,0.00
2019-05-05T02:56:20.106Z,0.00
2019-05-05T02:57:20.081Z,0.00
2019-05-05T02:58:20.072Z,0.00
2019-05-05T02:59:20.067Z,0.00
2019-05-05T03:00:20.051Z,0.00
2019-05-05T03:01:20.049Z,0.00
2019-05-05T03:02:20.030Z,0.00
2019-05-05T03:03:20.019Z,0.00
2019-05-05T03:04:20.026Z,0.00
2019-05-05T03:05:20.011Z,0.00
2019-05-05T03:06:19.997Z,0.00
2019-05-05T03:07:19.975Z,0.00
2019-05-05T03:08:19.963Z,0.00
2019-05-05T03:09:19.954Z,0.00
2019-05-05T03:10:19.966Z,0.00
2019-05-05T03:11:19.955Z,0.00
2019-05-05T03:12:19.943Z,0.00
2019-05-05T03:13:19.912Z,0.00
2019-05-05T03:14:19.905Z,0.00
2019-05-05T03:15:19.911Z,0.00
2019-05-05T03:16:19.903Z,0.00
2019-05-05T03:17:19.876Z,0.00
2019-05-05T03:18:19.866Z,0.00
2019-05-05T03:19:19.846Z,0.00
2019-05-05T03:20:19.836Z,0.00
2019-05-05T03:21:19.842Z,0.00
2019-05-05T03:22:19.821Z,0.00
2019-05-05T03:23:19.804Z,0.00
2019-05-05T03:24:19.793Z,0.00
2019-05-05T03:25:19.783Z,0.00
2019-05-05T03:26:19.791Z,0.00
2019-05-05T03:27:19.769Z,0.00
2019-05-05T03:28:19.783Z,0.00
2019-05-05T03:29:19.738Z,0.00
2019-05-05T03:30:19.729Z,0.00
2019-05-05T03:31:19.717Z,0.00
2019-05-05T03:32:19.728Z,0.00
2019-05-05T03:33:19.698Z,0.00
2019-05-05T03:34:19.703Z,0.00
2019-05-05T03:35:19.678Z,0.00
2019-05-05T03:36:19.663Z,0.00
2019-05-05T03:37:19.664Z,0.00
2019-05-05T03:38:19.643Z,0.00
2019-05-05T03:39:19.661Z,0.00
2019-05-05T03:40:19.691Z,0.00
2019-05-05T03:41:19.614Z,0.00
2019-05-05T03:42:19.607Z,0.00
2019-05-05T03:43:19.590Z,0.00
2019-05-05T03:44:19.599Z,0.00
2019-05-05T03:45:19.568Z,0.00
2019-05-05T03:46:19.565Z,0.00
2019-05-05T03:47:19.558Z,0.00
2019-05-05T03:48:19.535Z,0.00
2019-05-05T03:49:19.524Z,0.00
2019-05-05T03:50:19.512Z,0.00
2019-05-05T03:51:21.185Z,0.00
2019-05-05T03:52:19.499Z,0.00
2019-05-05T03:53:19.483Z,0.00
2019-05-05T03:54:19.483Z,0.00
2019-05-05T03:55:19.457Z,5.62
2019-05-05T03:56:19.447Z,5.62
2019-05-05T03:57:19.444Z,5.62
2019-05-05T03:58:19.427Z,5.62
2019-05-05T03:59:19.450Z,5.62
2019-05-05T04:00:19.405Z,5.62
2019-05-05T04:01:19.392Z,5.62
2019-05-05T04:02:19.398Z,11.25
2019-05-05T04:03:19.395Z,11.25
2019-05-05T04:04:19.360Z,11.25
2019-05-05T04:05:19.366Z,11.25
2019-05-05T04:06:19.342Z,11.25
2019-05-05T04:07:19.342Z,16.88
2019-05-05T04:08:19.321Z,16.88
2019-05-05T04:09:19.308Z,16.88
2019-05-05T04:10:19.302Z,16.88
2019-05-05T04:11:19.299Z,16.88
2019-05-05T04:12:19.289Z,22.50
2019-05-05T04:13:19.268Z,22.50
2019-05-05T04:14:19.258Z,22.50
2019-05-05T04:15:19.250Z,22.50
2019-05-05T04:16:19.246Z,22.50
2019-05-05T04:17:19.279Z,22.50
2019-05-05T04:18:19.219Z,22.50
2019-05-05T04:19:19.210Z,28.12
2019-05-05T04:20:19.200Z,28.12
2019-05-05T04:21:30.300Z,28.12
2019-05-05T04:22:20.191Z,28.12
2019-05-05T04:23:19.179Z,33.75
2019-05-05T04:24:19.157Z,33.75
2019-05-05T04:25:19.145Z,39.38
2019-05-05T04:26:19.135Z,39.38
2019-05-05T04:27:19.143Z,45.00
2019-05-05T04:28:19.113Z,50.62
2019-05-05T04:29:19.117Z,56.25
2019-05-05T04:30:19.099Z,56.25
2019-05-05T04:31:19.084Z,61.88
2019-05-05T04:32:19.083Z,61.88
2019-05-05T04:33:19.060Z,67.50
2019-05-05T04:34:19.058Z,67.50
2019-05-05T04:35:19.045Z,67.50
2019-05-05T04:36:19.056Z,61.88
2019-05-05T04:37:19.200Z,56.25
2019-05-05T04:38:19.007Z,61.88
2019-05-05T04:39:18.998Z,67.50
2019-05-05T04:40:19.022Z,73.12
2019-05-05T04:41:18.976Z,84.38
2019-05-05T04:42:18.966Z,84.38
2019-05-05T04:43:18.965Z,78.75
2019-05-05T04:44:18.946Z,78.75
2019-05-05T04:45:18.949Z,73.12
2019-05-05T04:46:18.927Z,78.75
2019-05-05T04:47:18.917Z,78.75
2019-05-05T04:48:18.924Z,84.38
2019-05-05T04:49:18.898Z,84.38
2019-05-05T04:50:18.888Z,84.38
2019-05-05T04:51:18.884Z,84.38
2019-05-05T04:52:18.869Z,90.00
2019-05-05T04:53:18.865Z,95.62
2019-05-05T04:54:18.904Z,95.62
2019-05-05T04:55:18.838Z,90.00
2019-05-05T04:56:18.836Z,84.38
2019-05-05T04:57:18.837Z,84.38
2019-05-05T04:58:18.814Z,78.75
2019-05-05T04:59:18.804Z,67.50
2019-05-05T05:00:18.784Z,56.25
2019-05-05T05:01:18.770Z,50.62
2019-05-05T05:02:18.761Z,50.62
2019-05-05T05:03:18.786Z,56.25
2019-05-05T05:04:18.743Z,56.25
2019-05-05T05:05:18.733Z,56.25
2019-05-05T05:06:18.722Z,61.88
2019-05-05T05:07:18.724Z,61.88
2019-05-05T05:08:19.061Z,56.25
2019-05-05T05:09:18.721Z,61.88
2019-05-05T05:10:18.745Z,73.12
2019-05-05T05:11:18.670Z,73.12
2019-05-05T05:12:18.663Z,78.75
2019-05-05T05:13:18.657Z,90.00
2019-05-05T05:14:18.638Z,90.00
2019-05-05T05:15:18.629Z,84.38
2019-05-05T05:16:18.653Z,78.75
2019-05-05T05:17:19.801Z,73.12
2019-05-05T05:18:18.608Z,61.88
2019-05-05T05:19:18.603Z,56.25
2019-05-05T05:20:18.597Z,61.88
2019-05-05T05:21:18.567Z,61.88
2019-05-05T05:22:18.597Z,61.88
2019-05-05T05:23:18.556Z,67.50
2019-05-05T05:24:18.536Z,73.12
2019-05-05T05:25:18.530Z,73.12
2019-05-05T05:26:18.517Z,78.75
2019-05-05T05:27:18.520Z,84.38
2019-05-05T05:28:18.551Z,101.25
2019-05-05T05:29:18.503Z,106.88
2019-05-05T05:30:18.475Z,106.88
2019-05-05T05:31:18.464Z,106.88
2019-05-05T05:32:18.463Z,118.12
2019-05-05T05:33:18.442Z,118.12
2019-05-05T05:34:18.475Z,135.00
2019-05-05T05:35:18.417Z,151.88
2019-05-05T05:36:18.407Z,163.12
2019-05-05T05:37:18.399Z,163.12
2019-05-05T05:38:18.393Z,157.50
2019-05-05T05:39:18.386Z,157.50
2019-05-05T05:40:18.413Z,157.50
2019-05-05T05:41:18.356Z,146.25
2019-05-05T05:42:18.345Z,140.62
2019-05-05T05:43:18.331Z,146.25
2019-05-05T05:44:18.330Z,146.25
2019-05-05T05:45:18.313Z,146.25
2019-05-05T05:46:18.336Z,157.50
2019-05-05T05:47:18.294Z,163.12
2019-05-05T05:48:18.277Z,174.38
2019-05-05T05:49:18.275Z,191.25
2019-05-05T05:50:18.257Z,180.00
2019-05-05T05:51:19.453Z,174.38
2019-05-05T05:52:19.164Z,180.00
2019-05-05T05:53:18.223Z,185.62
2019-05-05T05:54:18.222Z,180.00
2019-05-05T05:55:18.206Z,163.12
2019-05-05T05:56:18.199Z,151.88
2019-05-05T05:57:18.182Z,140.62
2019-05-05T05:58:18.224Z,129.38
2019-05-05T05:59:18.168Z,123.75
2019-05-05T06:00:18.150Z,123.75
2019-05-05T06:01:18.137Z,140.62
2019-05-05T06:02:18.185Z,146.25
2019-05-05T06:03:18.121Z,146.25
2019-05-05T06:04:18.114Z,135.00
2019-05-05T06:05:18.121Z,129.38
2019-05-05T06:06:18.085Z,146.25
2019-05-05T06:07:18.071Z,174.38
2019-05-05T06:08:18.061Z,191.25
2019-05-05T06:09:18.063Z,219.38
2019-05-05T06:10:24.265Z,208.12
2019-05-05T06:11:19.067Z,191.25
2019-05-05T06:12:18.019Z,191.25
2019-05-05T06:13:18.010Z,191.25
2019-05-05T06:14:18.094Z,191.25
2019-05-05T06:15:17.988Z,191.25
2019-05-05T06:16:17.981Z,208.12
2019-05-05T06:17:18.068Z,219.38
2019-05-05T06:18:17.960Z,185.62
2019-05-05T06:19:17.954Z,151.88
2019-05-05T06:20:17.986Z,157.50
2019-05-05T06:21:17.924Z,174.38
2019-05-05T06:22:28.607Z,185.62
2019-05-05T06:23:18.928Z,185.62
2019-05-05T06:24:17.918Z,196.88
2019-05-05T06:25:17.884Z,225.00
2019-05-05T06:26:17.879Z,230.62
2019-05-05T06:27:17.862Z,208.12
2019-05-05T06:28:17.960Z,196.88
2019-05-05T06:29:17.847Z,185.62
2019-05-05T06:30:17.839Z,191.25
2019-05-05T06:31:17.820Z,157.50
2019-05-05T06:32:17.810Z,146.25
2019-05-05T06:33:17.821Z,151.88
2019-05-05T06:34:17.791Z,151.88
2019-05-05T06:35:17.846Z,151.88
2019-05-05T06:36:17.775Z,185.62
2019-05-05T06:37:17.777Z,191.25
2019-05-05T06:38:17.757Z,213.75
2019-05-05T06:39:17.772Z,264.38
2019-05-05T06:40:17.798Z,320.62
2019-05-05T06:41:17.799Z,331.88
2019-05-05T06:42:17.704Z,303.75
2019-05-05T06:43:17.702Z,281.25
2019-05-05T06:44:17.689Z,258.75
2019-05-05T06:45:17.694Z,236.25
2019-05-05T06:46:17.675Z,253.12
2019-05-05T06:47:17.696Z,253.12
2019-05-05T06:48:17.643Z,236.25
2019-05-05T06:49:17.630Z,236.25
2019-05-05T06:50:17.630Z,219.38
2019-05-05T06:51:17.614Z,230.62
2019-05-05T06:52:17.601Z,253.12
2019-05-05T06:53:17.611Z,264.38
2019-05-05T06:54:17.579Z,281.25
2019-05-05T06:55:17.579Z,298.12
2019-05-05T06:56:17.556Z,326.25
2019-05-05T06:57:17.550Z,365.62
2019-05-05T06:58:17.536Z,388.12
2019-05-05T06:59:17.551Z,444.38
2019-05-05T07:00:17.547Z,466.88
2019-05-05T07:01:17.511Z,472.50
2019-05-05T07:02:17.498Z,523.12
2019-05-05T07:03:17.493Z,607.50
2019-05-05T07:04:17.476Z,624.38
2019-05-05T07:05:17.540Z,725.62
2019-05-05T07:06:17.455Z,742.50
2019-05-05T07:07:17.450Z,725.62
2019-05-05T07:08:17.437Z,720.00
2019-05-05T07:09:17.422Z,759.38
2019-05-05T07:10:17.424Z,770.62
2019-05-05T07:11:17.427Z,849.38
2019-05-05T07:12:17.437Z,781.88
2019-05-05T07:13:17.377Z,804.38
2019-05-05T07:14:17.368Z,866.25
2019-05-05T07:15:17.407Z,900.00
2019-05-05T07:16:17.350Z,1580.62
2019-05-05T07:17:17.363Z,1338.75
2019-05-05T07:18:17.357Z,1861.88
2019-05-05T07:19:17.312Z,1631.25
2019-05-05T07:20:17.350Z,1771.88
2019-05-05T07:21:17.313Z,1620.00
2019-05-05T07:22:17.788Z,1591.88
2019-05-05T07:23:17.271Z,984.38
2019-05-05T07:24:17.268Z,1946.25
2019-05-05T07:25:17.288Z,1873.12
2019-05-05T07:26:17.247Z,916.88
2019-05-05T07:27:17.226Z,1845.00
2019-05-05T07:28:17.219Z,1636.88
2019-05-05T07:29:18.152Z,911.25
2019-05-05T07:30:17.196Z,973.12
2019-05-05T07:31:17.225Z,1170.00
2019-05-05T07:32:17.172Z,973.12
2019-05-05T07:33:17.164Z,1873.12
2019-05-05T07:34:17.152Z,877.50
2019-05-05T07:35:17.154Z,669.38
2019-05-05T07:36:17.150Z,646.88
2019-05-05T07:37:17.180Z,703.12
2019-05-05T07:38:17.109Z,883.12
2019-05-05T07:39:17.103Z,1996.88
2019-05-05T07:40:17.089Z,725.62
2019-05-05T07:41:17.088Z,731.25
2019-05-05T07:42:17.067Z,883.12
2019-05-05T07:43:17.082Z,680.62
2019-05-05T07:44:28.308Z,787.50
2019-05-05T07:45:22.832Z,765.00
2019-05-05T07:46:18.037Z,652.50
2019-05-05T07:47:17.014Z,736.88
2019-05-05T07:48:17.043Z,618.75
2019-05-05T07:49:17.003Z,759.38
2019-05-05T07:50:28.564Z,1237.50
2019-05-05T07:51:17.985Z,1310.62
2019-05-05T07:52:17.032Z,1006.88
2019-05-05T07:53:17.994Z,1209.38
2019-05-05T07:54:16.989Z,1254.38
2019-05-05T07:55:16.950Z,1254.38
2019-05-05T07:56:16.935Z,1141.88
2019-05-05T07:57:16.907Z,1243.12
2019-05-05T07:58:16.898Z,1231.88
2019-05-05T07:59:16.884Z,1316.25
2019-05-05T08:00:16.899Z,1428.75
2019-05-05T08:01:16.876Z,1558.12
2019-05-05T08:02:16.872Z,1575.00
2019-05-05T08:03:16.843Z,1575.00
2019-05-05T08:04:16.842Z,1681.88
2019-05-05T08:05:16.823Z,1771.88
2019-05-05T08:06:16.949Z,1726.88
2019-05-05T08:07:16.810Z,1125.00
2019-05-05T08:08:16.798Z,1569.38
2019-05-05T08:09:16.784Z,1681.88
2019-05-05T08:10:16.825Z,815.62
2019-05-05T08:11:16.811Z,810.00
2019-05-05T08:12:16.745Z,911.25
2019-05-05T08:13:16.742Z,894.38
2019-05-05T08:14:16.725Z,911.25
2019-05-05T08:15:16.728Z,939.38
2019-05-05T08:16:16.711Z,1001.25
2019-05-05T08:17:16.712Z,1080.00
2019-05-05T08:18:16.682Z,1085.62
2019-05-05T08:19:16.729Z,1243.12
2019-05-05T08:20:19.339Z,1192.50
2019-05-05T08:21:16.658Z,1074.38
2019-05-05T08:22:16.644Z,1108.12
2019-05-05T08:23:29.081Z,1220.62
2019-05-05T08:24:17.617Z,1046.25
2019-05-05T08:25:16.642Z,1096.88
2019-05-05T08:26:16.604Z,1029.38
2019-05-05T08:27:16.592Z,905.62
2019-05-05T08:28:16.579Z,866.25
2019-05-05T08:29:16.561Z,860.62
2019-05-05T08:30:16.562Z,838.12
2019-05-05T08:31:16.599Z,916.88
2019-05-05T08:32:16.544Z,759.38
2019-05-05T08:33:16.548Z,675.00
2019-05-05T08:34:16.535Z,725.62
2019-05-05T08:35:16.498Z,804.38
2019-05-05T08:36:16.525Z,866.25
2019-05-05T08:37:16.477Z,922.50
2019-05-05T08:38:16.487Z,1057.50
2019-05-05T08:39:16.456Z,821.25
2019-05-05T08:40:16.446Z,691.88
2019-05-05T08:41:16.439Z,669.38
2019-05-05T08:42:16.450Z,742.50
2019-05-05T08:43:16.430Z,787.50
2019-05-05T08:44:18.138Z,708.75
2019-05-05T08:45:16.413Z,652.50
2019-05-05T08:46:16.380Z,686.25
2019-05-05T08:47:16.385Z,759.38
2019-05-05T08:48:16.364Z,787.50
2019-05-05T08:49:16.348Z,860.62
2019-05-05T08:50:16.344Z,978.75
2019-05-05T08:51:16.335Z,1012.50
2019-05-05T08:52:16.332Z,961.88
2019-05-05T08:53:16.309Z,967.50
2019-05-05T08:54:16.297Z,973.12
2019-05-05T08:55:16.298Z,877.50
2019-05-05T08:56:16.275Z,821.25
2019-05-05T08:57:16.279Z,832.50
2019-05-05T08:58:16.270Z,928.12
2019-05-05T08:59:16.263Z,1074.38
2019-05-05T09:00:16.232Z,1895.62
2019-05-05T09:01:16.222Z,2452.50
2019-05-05T09:02:16.219Z,1305.00
2019-05-05T09:03:16.231Z,1282.50
2019-05-05T09:04:16.189Z,1400.62
2019-05-05T09:05:16.178Z,1816.88
2019-05-05T09:06:16.167Z,1260.00
2019-05-05T09:07:16.170Z,1186.88
2019-05-05T09:08:16.147Z,1074.38
2019-05-05T09:09:16.153Z,1051.88
2019-05-05T09:10:16.126Z,961.88
2019-05-05T09:11:16.124Z,883.12
2019-05-05T09:12:16.114Z,821.25
2019-05-05T09:13:16.096Z,725.62
2019-05-05T09:14:16.084Z,646.88
2019-05-05T09:15:16.089Z,613.12
2019-05-05T09:16:16.061Z,624.38
2019-05-05T09:17:16.067Z,658.12
2019-05-05T09:18:16.041Z,742.50
2019-05-05T09:19:16.035Z,883.12
2019-05-05T09:20:16.018Z,731.25
2019-05-05T09:21:16.012Z,658.12
2019-05-05T09:22:16.014Z,675.00
2019-05-05T09:23:15.985Z,753.75
2019-05-05T09:24:15.974Z,495.00
2019-05-05T09:25:15.964Z,450.00
2019-05-05T09:26:15.952Z,382.50
2019-05-05T09:27:15.968Z,354.38
2019-05-05T09:28:15.939Z,354.38
2019-05-05T09:29:15.923Z,354.38
2019-05-05T09:30:15.910Z,343.12
2019-05-05T09:31:15.901Z,320.62
2019-05-05T09:32:15.899Z,292.50
2019-05-05T09:33:18.269Z,270.00
2019-05-05T09:34:15.866Z,258.75
2019-05-05T09:35:15.859Z,241.88
2019-05-05T09:36:15.861Z,225.00
2019-05-05T09:37:15.882Z,219.38
2019-05-05T09:38:15.823Z,230.62
2019-05-05T09:39:15.855Z,236.25
2019-05-05T09:40:15.805Z,247.50
2019-05-05T09:41:15.792Z,247.50
2019-05-05T09:42:15.791Z,247.50
2019-05-05T09:43:15.771Z,241.88
2019-05-05T09:44:15.781Z,236.25
2019-05-05T09:45:15.748Z,230.62
2019-05-05T09:46:15.742Z,230.62
2019-05-05T09:47:15.793Z,247.50
2019-05-05T09:48:15.728Z,292.50
2019-05-05T09:49:15.707Z,320.62
2019-05-05T09:50:15.696Z,360.00
2019-05-05T09:51:15.689Z,421.88
2019-05-05T09:52:15.683Z,500.62
2019-05-05T09:53:15.696Z,601.88
2019-05-05T09:54:17.462Z,703.12
2019-05-05T09:55:15.641Z,793.12
2019-05-05T09:56:15.630Z,866.25
2019-05-05T09:57:15.624Z,911.25
2019-05-05T09:58:15.640Z,950.62
2019-05-05T09:59:15.606Z,1001.25
2019-05-05T10:00:15.591Z,1068.75
2019-05-05T10:01:15.592Z,1119.38
2019-05-05T10:02:15.567Z,1175.62
2019-05-05T10:03:15.573Z,1192.50
2019-05-05T10:04:15.571Z,1164.38
2019-05-05T10:05:15.566Z,1153.12
2019-05-05T10:06:15.539Z,1153.12
2019-05-05T10:07:15.513Z,1198.12
2019-05-05T10:08:15.513Z,1186.88
2019-05-05T10:09:15.491Z,1170.00
2019-05-05T10:10:15.500Z,1175.62
2019-05-05T10:11:16.625Z,1282.50
2019-05-05T10:12:15.466Z,1035.00
2019-05-05T10:13:15.479Z,860.62
2019-05-05T10:14:15.439Z,675.00
2019-05-05T10:15:15.455Z,489.38
2019-05-05T10:16:15.416Z,354.38
2019-05-05T10:17:15.438Z,264.38
2019-05-05T10:18:15.410Z,202.50
2019-05-05T10:19:15.403Z,163.12
2019-05-05T10:20:15.379Z,140.62
2019-05-05T10:21:17.782Z,129.38
2019-05-05T10:22:15.352Z,129.38
2019-05-05T10:23:15.441Z,129.38
2019-05-05T10:24:27.783Z,129.38
2019-05-05T10:25:16.338Z,129.38
2019-05-05T10:26:15.310Z,135.00
2019-05-05T10:27:15.297Z,151.88
2019-05-05T10:28:15.297Z,168.75
2019-05-05T10:29:15.345Z,163.12
2019-05-05T10:30:15.283Z,163.12
2019-05-05T10:31:15.276Z,163.12
2019-05-05T10:32:15.251Z,174.38
2019-05-05T10:33:15.247Z,191.25
2019-05-05T10:34:15.223Z,230.62
2019-05-05T10:35:15.261Z,320.62
2019-05-05T10:36:15.203Z,421.88
2019-05-05T10:37:15.200Z,511.88
2019-05-05T10:38:15.208Z,601.88
2019-05-05T10:39:15.175Z,708.75
2019-05-05T10:40:15.162Z,810.00
2019-05-05T10:41:15.162Z,905.62
2019-05-05T10:42:15.139Z,984.38
2019-05-05T10:43:15.140Z,1046.25
2019-05-05T10:44:15.122Z,1102.50
2019-05-05T10:45:15.121Z,1141.88
2019-05-05T10:46:15.095Z,1186.88
2019-05-05T10:47:15.090Z,1203.75
2019-05-05T10:48:15.101Z,1231.88
2019-05-05T10:49:15.063Z,1254.38
2019-05-05T10:50:15.054Z,1282.50
2019-05-05T10:51:15.044Z,1282.50
2019-05-05T10:52:15.032Z,1276.88
2019-05-05T10:53:15.063Z,1254.38
2019-05-05T10:54:15.011Z,1237.50
2019-05-05T10:55:14.999Z,1248.75
2019-05-05T10:56:14.990Z,1276.88
2019-05-05T10:57:18.319Z,1316.25
2019-05-05T10:58:14.978Z,1350.00
2019-05-05T10:59:14.985Z,1378.12
2019-05-05T11:00:15.654Z,1411.88
2019-05-05T11:01:14.941Z,1468.12
2019-05-05T11:02:14.923Z,1395.00
2019-05-05T11:03:15.291Z,1625.62
2019-05-05T11:04:14.949Z,3318.75
2019-05-05T11:05:14.936Z,3740.62
2019-05-05T11:06:14.886Z,3639.38
2019-05-05T11:07:14.869Z,1597.50
2019-05-05T11:08:14.862Z,1355.62
2019-05-05T11:09:14.861Z,1254.38
2019-05-05T11:10:14.844Z,1164.38
2019-05-05T11:11:14.832Z,1068.75
2019-05-05T11:12:14.847Z,978.75
2019-05-05T11:13:14.805Z,900.00
2019-05-05T11:14:14.815Z,821.25
2019-05-05T11:15:14.784Z,770.62
2019-05-05T11:16:14.785Z,748.12
2019-05-05T11:17:14.760Z,753.75
2019-05-05T11:18:15.222Z,849.38
2019-05-05T11:19:14.760Z,1293.75
2019-05-05T11:20:14.728Z,1203.75
2019-05-05T11:21:14.718Z,1153.12
2019-05-05T11:22:14.890Z,1321.88
2019-05-05T11:23:15.221Z,2660.62
2019-05-05T11:24:14.758Z,2233.12
2019-05-05T11:25:14.673Z,1417.50
2019-05-05T11:26:14.664Z,1777.50
2019-05-05T11:27:14.679Z,2784.38
2019-05-05T11:28:14.647Z,4179.38
2019-05-05T11:29:14.641Z,3555.00
2019-05-05T11:30:14.666Z,1186.88
2019-05-05T11:31:14.621Z,1006.88
2019-05-05T11:32:15.275Z,984.38
2019-05-05T11:33:14.587Z,866.25
2019-05-05T11:34:14.588Z,832.50
2019-05-05T11:35:14.568Z,810.00
2019-05-05T11:36:14.565Z,781.88
2019-05-05T11:37:14.546Z,770.62
2019-05-05T11:38:14.550Z,781.88
2019-05-05T11:39:14.887Z,832.50
2019-05-05T11:40:14.615Z,860.62
2019-05-05T11:41:14.633Z,911.25
2019-05-05T11:42:14.693Z,950.62
2019-05-05T11:43:14.487Z,967.50
2019-05-05T11:44:15.175Z,984.38
2019-05-05T11:45:14.927Z,995.62
2019-05-05T11:46:14.452Z,1018.12
2019-05-05T11:47:14.469Z,1237.50
2019-05-05T11:48:14.893Z,1766.25
2019-05-05T11:49:14.431Z,2463.75
2019-05-05T11:50:14.406Z,3650.62
2019-05-05T11:51:15.079Z,3515.62
2019-05-05T11:52:14.393Z,3661.88
2019-05-05T11:53:14.662Z,3706.88
2019-05-05T11:54:14.394Z,3712.50
2019-05-05T11:55:14.986Z,3723.75
2019-05-05T11:56:14.617Z,3735.00
2019-05-05T11:57:14.333Z,3881.25
2019-05-05T11:58:14.564Z,4083.75
2019-05-05T11:59:14.576Z,4246.88
2019-05-05T12:00:14.300Z,1102.50
2019-05-05T12:01:14.301Z,4140.00
2019-05-05T12:02:14.281Z,1136.25
2019-05-05T12:03:14.575Z,1468.12
2019-05-05T12:04:14.676Z,4111.88
2019-05-05T12:05:14.246Z,4100.62
2019-05-05T12:06:14.815Z,3954.38
2019-05-05T12:07:14.688Z,1018.12
2019-05-05T12:08:14.756Z,900.00
2019-05-05T12:09:14.231Z,736.88
2019-05-05T12:10:14.211Z,562.50
2019-05-05T12:11:15.069Z,466.88
2019-05-05T12:12:14.362Z,399.38
2019-05-05T12:13:14.801Z,348.75
2019-05-05T12:14:14.403Z,303.75
2019-05-05T12:15:14.174Z,275.62
2019-05-05T12:16:14.127Z,253.12
2019-05-05T12:17:14.120Z,247.50
2019-05-05T12:18:14.488Z,258.75
2019-05-05T12:19:14.120Z,275.62
2019-05-05T12:20:14.082Z,298.12
2019-05-05T12:21:14.187Z,343.12
2019-05-05T12:22:14.060Z,382.50
2019-05-05T12:23:14.096Z,450.00
2019-05-05T12:24:14.381Z,511.88
2019-05-05T12:25:25.500Z,573.75
2019-05-05T12:26:15.074Z,624.38
2019-05-05T12:27:14.189Z,675.00
2019-05-05T12:28:14.018Z,708.75
2019-05-05T12:29:14.165Z,703.12
2019-05-05T12:30:14.220Z,675.00
2019-05-05T12:31:14.199Z,658.12
2019-05-05T12:32:14.866Z,630.00
2019-05-05T12:33:13.942Z,585.00
2019-05-05T12:34:13.982Z,540.00
2019-05-05T12:35:14.833Z,495.00
2019-05-05T12:36:15.057Z,461.25
2019-05-05T12:37:14.325Z,421.88
2019-05-05T12:38:13.890Z,393.75
2019-05-05T12:39:14.278Z,360.00
2019-05-05T12:40:14.433Z,337.50
2019-05-05T12:41:14.758Z,331.88
2019-05-05T12:42:14.143Z,343.12